TAF PAGA
PAGA 090536Z 0906/1006 09006KT 6SM -SN BR OVC015 TEMPO 0906/0910 2SM -SN BR FM091400 10009KT 4SM -SN BR OVC015 FM092100 VRB04KT P6SM OVC015=
METAR PAGA
WC PAGA
WS PAGA
WV PAGA